sensor_id;sensor_type;location;lat;lon;timestamp;P1;durP1;ratioP1;P2;durP2;ratioP2
53453;SDS011;49404;50.472;6.954;2024-03-23T07:28:40;3.50;;;3.30;;
53453;SDS011;49404;50.472;6.954;2024-03-23T07:31:12;3.70;;;3.50;;
53453;SDS011;49404;50.472;6.954;2024-03-23T07:33:42;3.42;;;3.22;;
53453;SDS011;49404;50.472;6.954;2024-03-23T07:36:08;3.60;;;3.40;;
53453;SDS011;49404;50.472;6.954;2024-03-23T07:38:34;3.50;;;3.30;;
53453;SDS011;49404;50.472;6.954;2024-03-23T07:43:29;3.30;;;3.10;;
53453;SDS011;49404;50.472;6.954;2024-03-23T07:45:55;3.78;;;3.50;;
53453;SDS011;49404;50.472;6.954;2024-03-23T07:48:21;3.40;;;3.20;;
53453;SDS011;49404;50.472;6.954;2024-03-23T07:50:57;3.50;;;3.30;;
53453;SDS011;49404;50.472;6.954;2024-03-23T07:53:23;3.40;;;3.20;;
53453;SDS011;49404;50.472;6.954;2024-03-23T07:58:46;3.50;;;3.30;;
53453;SDS011;49404;50.472;6.954;2024-03-23T08:01:13;3.90;;;3.60;;
53453;SDS011;49404;50.472;6.954;2024-03-23T08:03:40;3.40;;;3.20;;
53453;SDS011;49404;50.472;6.954;2024-03-23T08:06:16;3.70;;;3.40;;
53453;SDS011;49404;50.472;6.954;2024-03-23T08:08:43;4.75;;;3.40;;
53453;SDS011;49404;50.472;6.954;2024-03-23T08:11:09;4.05;;;3.47;;
53453;SDS011;49404;50.472;6.954;2024-03-23T08:13:35;4.00;;;3.70;;
53453;SDS011;49404;50.472;6.954;2024-03-23T08:16:02;3.53;;;3.30;;
53453;SDS011;49404;50.472;6.954;2024-03-23T08:18:29;6.43;;;3.10;;
53453;SDS011;49404;50.472;6.954;2024-03-23T08:21:05;3.40;;;3.20;;
53453;SDS011;49404;50.472;6.954;2024-03-23T08:23:32;3.28;;;3.08;;
53453;SDS011;49404;50.472;6.954;2024-03-23T08:26:09;2.53;;;2.42;;
53453;SDS011;49404;50.472;6.954;2024-03-23T08:28:35;2.65;;;2.55;;
53453;SDS011;49404;50.472;6.954;2024-03-23T08:31:02;2.60;;;2.50;;
53453;SDS011;49404;50.472;6.954;2024-03-23T08:33:28;2.30;;;2.20;;
53453;SDS011;49404;50.472;6.954;2024-03-23T08:35:55;2.50;;;2.40;;
53453;SDS011;49404;50.472;6.954;2024-03-23T08:38:22;2.67;;;2.58;;
53453;SDS011;49404;50.472;6.954;2024-03-23T08:40:48;2.45;;;2.25;;
53453;SDS011;49404;50.472;6.954;2024-03-23T08:43:21;2.30;;;2.20;;
53453;SDS011;49404;50.472;6.954;2024-03-23T08:45:47;2.00;;;1.90;;
53453;SDS011;49404;50.472;6.954;2024-03-23T08:48:14;2.30;;;2.20;;
53453;SDS011;49404;50.472;6.954;2024-03-23T08:50:39;2.67;;;2.42;;
53453;SDS011;49404;50.472;6.954;2024-03-23T08:53:06;2.38;;;2.28;;
53453;SDS011;49404;50.472;6.954;2024-03-23T08:55:31;2.50;;;2.40;;
53453;SDS011;49404;50.472;6.954;2024-03-23T08:57:57;2.40;;;2.30;;
53453;SDS011;49404;50.472;6.954;2024-03-23T09:00:25;2.65;;;2.45;;
53453;SDS011;49404;50.472;6.954;2024-03-23T09:02:51;2.50;;;2.40;;
53453;SDS011;49404;50.472;6.954;2024-03-23T09:05:18;2.50;;;2.30;;
53453;SDS011;49404;50.472;6.954;2024-03-23T09:07:43;2.40;;;2.30;;
53453;SDS011;49404;50.472;6.954;2024-03-23T09:10:09;2.45;;;2.35;;
53453;SDS011;49404;50.472;6.954;2024-03-23T09:12:35;3.03;;;2.33;;
53453;SDS011;49404;50.472;6.954;2024-03-23T09:15:01;2.63;;;2.42;;
53453;SDS011;49404;50.472;6.954;2024-03-23T09:17:28;6.05;;;2.50;;
53453;SDS011;49404;50.472;6.954;2024-03-23T09:19:54;6.30;;;3.83;;
53453;SDS011;49404;50.472;6.954;2024-03-23T09:22:20;4.47;;;3.53;;
53453;SDS011;49404;50.472;6.954;2024-03-23T09:24:46;5.47;;;3.53;;
53453;SDS011;49404;50.472;6.954;2024-03-23T09:27:12;4.72;;;3.20;;
53453;SDS011;49404;50.472;6.954;2024-03-23T09:29:38;4.35;;;3.00;;
53453;SDS011;49404;50.472;6.954;2024-03-23T09:32:04;3.70;;;3.13;;
53453;SDS011;49404;50.472;6.954;2024-03-23T09:34:30;4.60;;;3.25;;
53453;SDS011;49404;50.472;6.954;2024-03-23T09:36:56;3.40;;;3.10;;
53453;SDS011;49404;50.472;6.954;2024-03-23T09:39:22;4.30;;;3.30;;
53453;SDS011;49404;50.472;6.954;2024-03-23T09:41:48;3.40;;;3.10;;
53453;SDS011;49404;50.472;6.954;2024-03-23T09:44:14;3.40;;;2.80;;
53453;SDS011;49404;50.472;6.954;2024-03-23T09:46:40;3.37;;;2.97;;
53453;SDS011;49404;50.472;6.954;2024-03-23T09:49:09;3.35;;;3.00;;
53453;SDS011;49404;50.472;6.954;2024-03-23T09:51:36;3.40;;;3.15;;
53453;SDS011;49404;50.472;6.954;2024-03-23T09:54:02;3.87;;;3.20;;
53453;SDS011;49404;50.472;6.954;2024-03-23T09:56:28;3.53;;;3.22;;
53453;SDS011;49404;50.472;6.954;2024-03-23T09:59:03;4.05;;;3.40;;
53453;SDS011;49404;50.472;6.954;2024-03-23T10:01:30;3.40;;;3.10;;
53453;SDS011;49404;50.472;6.954;2024-03-23T10:03:56;3.42;;;3.20;;
53453;SDS011;49404;50.472;6.954;2024-03-23T10:06:22;3.60;;;3.30;;
53453;SDS011;49404;50.472;6.954;2024-03-23T10:08:52;3.47;;;3.20;;
53453;SDS011;49404;50.472;6.954;2024-03-23T10:11:19;3.50;;;3.20;;
53453;SDS011;49404;50.472;6.954;2024-03-23T10:13:46;4.95;;;3.10;;
53453;SDS011;49404;50.472;6.954;2024-03-23T10:16:12;7.30;;;3.10;;
53453;SDS011;49404;50.472;6.954;2024-03-23T10:18:41;3.72;;;3.30;;
53453;SDS011;49404;50.472;6.954;2024-03-23T10:21:08;3.70;;;3.40;;
53453;SDS011;49404;50.472;6.954;2024-03-23T10:23:36;3.60;;;3.30;;
53453;SDS011;49404;50.472;6.954;2024-03-23T10:31:19;3.75;;;3.50;;
53453;SDS011;49404;50.472;6.954;2024-03-23T10:33:46;3.70;;;3.45;;
53453;SDS011;49404;50.472;6.954;2024-03-23T10:36:12;3.85;;;3.58;;
53453;SDS011;49404;50.472;6.954;2024-03-23T10:38:42;4.05;;;3.30;;
53453;SDS011;49404;50.472;6.954;2024-03-23T10:41:08;3.75;;;3.45;;
53453;SDS011;49404;50.472;6.954;2024-03-23T10:43:35;3.78;;;3.58;;
53453;SDS011;49404;50.472;6.954;2024-03-23T10:46:02;4.00;;;3.70;;
53453;SDS011;49404;50.472;6.954;2024-03-23T10:48:28;3.70;;;3.40;;
53453;SDS011;49404;50.472;6.954;2024-03-23T10:50:54;3.83;;;3.60;;
53453;SDS011;49404;50.472;6.954;2024-03-23T10:53:25;3.83;;;3.53;;
53453;SDS011;49404;50.472;6.954;2024-03-23T10:55:51;6.45;;;3.42;;
53453;SDS011;49404;50.472;6.954;2024-03-23T10:58:19;4.28;;;3.67;;
53453;SDS011;49404;50.472;6.954;2024-03-23T11:00:47;5.05;;;3.70;;
53453;SDS011;49404;50.472;6.954;2024-03-23T11:03:32;4.70;;;4.00;;
53453;SDS011;49404;50.472;6.954;2024-03-23T11:05:59;4.38;;;3.97;;
53453;SDS011;49404;50.472;6.954;2024-03-23T11:08:32;6.15;;;3.60;;
53453;SDS011;49404;50.472;6.954;2024-03-23T11:11:15;4.10;;;3.70;;
53453;SDS011;49404;50.472;6.954;2024-03-23T11:13:43;3.88;;;3.58;;
53453;SDS011;49404;50.472;6.954;2024-03-23T11:16:25;3.92;;;3.60;;
53453;SDS011;49404;50.472;6.954;2024-03-23T11:21:55;4.03;;;3.72;;
53453;SDS011;49404;50.472;6.954;2024-03-23T11:24:21;4.03;;;3.72;;
53453;SDS011;49404;50.472;6.954;2024-03-23T11:26:48;4.00;;;3.70;;
53453;SDS011;49404;50.472;6.954;2024-03-23T11:29:15;3.90;;;3.60;;
53453;SDS011;49404;50.472;6.954;2024-03-23T11:31:50;4.53;;;3.97;;
53453;SDS011;49404;50.472;6.954;2024-03-23T11:34:17;3.97;;;3.67;;
53453;SDS011;49404;50.472;6.954;2024-03-23T11:36:43;4.13;;;3.72;;
53453;SDS011;49404;50.472;6.954;2024-03-23T11:39:19;4.38;;;3.88;;
53453;SDS011;49404;50.472;6.954;2024-03-23T11:41:55;5.03;;;4.18;;
53453;SDS011;49404;50.472;6.954;2024-03-23T11:44:22;4.57;;;4.22;;
53453;SDS011;49404;50.472;6.954;2024-03-23T11:46:48;4.10;;;3.80;;
53453;SDS011;49404;50.472;6.954;2024-03-23T11:54:16;4.15;;;3.75;;
53453;SDS011;49404;50.472;6.954;2024-03-23T11:56:58;4.20;;;3.83;;
53453;SDS011;49404;50.472;6.954;2024-03-23T11:59:40;4.00;;;3.65;;
53453;SDS011;49404;50.472;6.954;2024-03-23T12:02:15;4.15;;;3.83;;
53453;SDS011;49404;50.472;6.954;2024-03-23T12:04:44;4.30;;;4.00;;
53453;SDS011;49404;50.472;6.954;2024-03-23T12:56:07;4.80;;;4.50;;
53453;SDS011;49404;50.472;6.954;2024-03-23T13:03:48;4.70;;;4.40;;
53453;SDS011;49404;50.472;6.954;2024-03-23T13:18:33;4.70;;;4.40;;
53453;SDS011;49404;50.472;6.954;2024-03-23T13:21:00;4.70;;;4.40;;
53453;SDS011;49404;50.472;6.954;2024-03-23T13:23:26;4.70;;;4.40;;
53453;SDS011;49404;50.472;6.954;2024-03-23T13:25:52;4.80;;;4.50;;
53453;SDS011;49404;50.472;6.954;2024-03-23T13:38:02;4.95;;;4.65;;
53453;SDS011;49404;50.472;6.954;2024-03-23T13:45:20;4.80;;;4.50;;
53453;SDS011;49404;50.472;6.954;2024-03-23T13:47:46;5.07;;;4.78;;
53453;SDS011;49404;50.472;6.954;2024-03-23T13:50:12;5.07;;;4.78;;
53453;SDS011;49404;50.472;6.954;2024-03-23T13:52:38;5.00;;;4.70;;
53453;SDS011;49404;50.472;6.954;2024-03-23T13:55:04;5.30;;;5.00;;
53453;SDS011;49404;50.472;6.954;2024-03-23T13:57:32;5.00;;;4.70;;
53453;SDS011;49404;50.472;6.954;2024-03-23T13:59:58;5.20;;;4.90;;
53453;SDS011;49404;50.472;6.954;2024-03-23T14:02:24;4.80;;;4.50;;
53453;SDS011;49404;50.472;6.954;2024-03-23T14:04:50;5.03;;;4.72;;
53453;SDS011;49404;50.472;6.954;2024-03-23T14:07:17;5.30;;;5.00;;
53453;SDS011;49404;50.472;6.954;2024-03-23T14:09:44;4.80;;;4.50;;
53453;SDS011;49404;50.472;6.954;2024-03-23T14:12:11;5.07;;;4.78;;
53453;SDS011;49404;50.472;6.954;2024-03-23T14:14:37;5.10;;;4.80;;
53453;SDS011;49404;50.472;6.954;2024-03-23T14:17:03;4.90;;;4.60;;
53453;SDS011;49404;50.472;6.954;2024-03-23T14:21:55;5.10;;;4.80;;
53453;SDS011;49404;50.472;6.954;2024-03-23T14:36:30;5.20;;;4.80;;
53453;SDS011;49404;50.472;6.954;2024-03-23T14:38:56;4.82;;;4.53;;
53453;SDS011;49404;50.472;6.954;2024-03-23T14:41:22;4.97;;;4.68;;
53453;SDS011;49404;50.472;6.954;2024-03-23T14:51:08;5.70;;;5.30;;
53453;SDS011;49404;50.472;6.954;2024-03-23T14:53:34;5.90;;;5.50;;
53453;SDS011;49404;50.472;6.954;2024-03-23T14:56:01;6.28;;;5.80;;
53453;SDS011;49404;50.472;6.954;2024-03-23T15:00:53;6.60;;;6.13;;
53453;SDS011;49404;50.472;6.954;2024-03-23T15:03:19;6.70;;;6.30;;
53453;SDS011;49404;50.472;6.954;2024-03-23T15:05:51;7.68;;;7.07;;
53453;SDS011;49404;50.472;6.954;2024-03-23T15:13:09;7.30;;;6.80;;
53453;SDS011;49404;50.472;6.954;2024-03-23T15:21:00;7.20;;;6.70;;
53453;SDS011;49404;50.472;6.954;2024-03-23T15:23:27;6.97;;;6.47;;
53453;SDS011;49404;50.472;6.954;2024-03-23T15:25:54;7.10;;;6.60;;
53453;SDS011;49404;50.472;6.954;2024-03-23T15:28:20;6.97;;;6.47;;
53453;SDS011;49404;50.472;6.954;2024-03-23T15:30:46;6.88;;;6.38;;
53453;SDS011;49404;50.472;6.954;2024-03-23T15:33:12;6.95;;;6.45;;
53453;SDS011;49404;50.472;6.954;2024-03-23T15:35:38;7.28;;;6.78;;
53453;SDS011;49404;50.472;6.954;2024-03-23T15:38:04;8.63;;;6.68;;
53453;SDS011;49404;50.472;6.954;2024-03-23T15:40:30;7.10;;;6.60;;
53453;SDS011;49404;50.472;6.954;2024-03-23T15:42:56;6.88;;;6.40;;
53453;SDS011;49404;50.472;6.954;2024-03-23T15:45:22;7.00;;;6.50;;
53453;SDS011;49404;50.472;6.954;2024-03-23T15:47:48;8.43;;;6.63;;
53453;SDS011;49404;50.472;6.954;2024-03-23T15:50:14;6.75;;;6.25;;
53453;SDS011;49404;50.472;6.954;2024-03-23T15:52:40;7.22;;;6.72;;
53453;SDS011;49404;50.472;6.954;2024-03-23T15:55:06;6.72;;;6.25;;
53453;SDS011;49404;50.472;6.954;2024-03-23T15:57:34;6.80;;;6.30;;
53453;SDS011;49404;50.472;6.954;2024-03-23T16:00:00;7.03;;;6.53;;
53453;SDS011;49404;50.472;6.954;2024-03-23T16:02:27;6.82;;;6.32;;
53453;SDS011;49404;50.472;6.954;2024-03-23T16:04:53;7.05;;;6.50;;
53453;SDS011;49404;50.472;6.954;2024-03-23T16:07:19;6.88;;;6.38;;
53453;SDS011;49404;50.472;6.954;2024-03-23T16:09:48;7.00;;;6.50;;
53453;SDS011;49404;50.472;6.954;2024-03-23T16:12:14;6.50;;;6.10;;
53453;SDS011;49404;50.472;6.954;2024-03-23T16:14:40;6.95;;;6.45;;
53453;SDS011;49404;50.472;6.954;2024-03-23T16:17:09;6.90;;;6.30;;
53453;SDS011;49404;50.472;6.954;2024-03-23T16:19:35;7.18;;;6.68;;
53453;SDS011;49404;50.472;6.954;2024-03-23T16:22:01;6.75;;;6.28;;
53453;SDS011;49404;50.472;6.954;2024-03-23T16:24:27;6.80;;;6.30;;
53453;SDS011;49404;50.472;6.954;2024-03-23T16:26:53;6.82;;;6.32;;
53453;SDS011;49404;50.472;6.954;2024-03-23T16:29:19;6.78;;;6.28;;
53453;SDS011;49404;50.472;6.954;2024-03-23T16:31:45;7.07;;;6.57;;
53453;SDS011;49404;50.472;6.954;2024-03-23T16:34:11;6.90;;;6.40;;
53453;SDS011;49404;50.472;6.954;2024-03-23T16:36:37;7.00;;;6.50;;
53453;SDS011;49404;50.472;6.954;2024-03-23T16:39:03;6.90;;;6.40;;
53453;SDS011;49404;50.472;6.954;2024-03-23T16:41:29;6.60;;;6.20;;
53453;SDS011;49404;50.472;6.954;2024-03-23T16:43:55;8.75;;;6.30;;
53453;SDS011;49404;50.472;6.954;2024-03-23T16:46:21;7.03;;;6.57;;
53453;SDS011;49404;50.472;6.954;2024-03-23T16:48:47;6.60;;;6.10;;
53453;SDS011;49404;50.472;6.954;2024-03-23T16:51:13;6.78;;;6.30;;
53453;SDS011;49404;50.472;6.954;2024-03-23T16:53:39;6.60;;;6.20;;
53453;SDS011;49404;50.472;6.954;2024-03-23T16:56:06;7.00;;;6.50;;
53453;SDS011;49404;50.472;6.954;2024-03-23T16:58:33;6.78;;;6.28;;
53453;SDS011;49404;50.472;6.954;2024-03-23T17:01:03;6.45;;;6.05;;
53453;SDS011;49404;50.472;6.954;2024-03-23T17:03:30;6.78;;;6.25;;
53453;SDS011;49404;50.472;6.954;2024-03-23T17:05:56;6.40;;;6.00;;
53453;SDS011;49404;50.472;6.954;2024-03-23T17:08:22;6.63;;;6.22;;
53453;SDS011;49404;50.472;6.954;2024-03-23T17:10:48;7.00;;;6.50;;
53453;SDS011;49404;50.472;6.954;2024-03-23T17:13:14;6.82;;;6.40;;
53453;SDS011;49404;50.472;6.954;2024-03-23T17:15:46;9.00;;;6.80;;
53453;SDS011;49404;50.472;6.954;2024-03-23T17:18:12;6.82;;;6.32;;
53453;SDS011;49404;50.472;6.954;2024-03-23T17:20:38;7.07;;;6.57;;
53453;SDS011;49404;50.472;6.954;2024-03-23T17:23:04;6.93;;;6.43;;
53453;SDS011;49404;50.472;6.954;2024-03-23T17:25:31;6.90;;;6.40;;
53453;SDS011;49404;50.472;6.954;2024-03-23T17:27:57;6.80;;;6.30;;
53453;SDS011;49404;50.472;6.954;2024-03-23T17:30:23;6.93;;;6.43;;
53453;SDS011;49404;50.472;6.954;2024-03-23T17:32:52;6.78;;;6.28;;
53453;SDS011;49404;50.472;6.954;2024-03-23T17:35:21;6.75;;;6.35;;
53453;SDS011;49404;50.472;6.954;2024-03-23T17:37:47;6.82;;;6.32;;
53453;SDS011;49404;50.472;6.954;2024-03-23T17:40:14;6.93;;;6.50;;
53453;SDS011;49404;50.472;6.954;2024-03-23T17:42:40;6.82;;;6.43;;
53453;SDS011;49404;50.472;6.954;2024-03-23T17:45:06;7.00;;;6.50;;
53453;SDS011;49404;50.472;6.954;2024-03-23T17:47:40;6.72;;;6.22;;
53453;SDS011;49404;50.472;6.954;2024-03-23T17:50:07;6.78;;;6.38;;
53453;SDS011;49404;50.472;6.954;2024-03-23T17:52:33;6.82;;;6.43;;
53453;SDS011;49404;50.472;6.954;2024-03-23T17:54:59;6.95;;;6.45;;
53453;SDS011;49404;50.472;6.954;2024-03-23T17:57:26;6.75;;;6.32;;
53453;SDS011;49404;50.472;6.954;2024-03-23T17:59:54;6.75;;;6.28;;
53453;SDS011;49404;50.472;6.954;2024-03-23T18:02:20;6.82;;;6.43;;
53453;SDS011;49404;50.472;6.954;2024-03-23T18:04:49;7.18;;;6.68;;
53453;SDS011;49404;50.472;6.954;2024-03-23T18:07:16;6.70;;;6.30;;
53453;SDS011;49404;50.472;6.954;2024-03-23T18:09:42;6.78;;;6.38;;
53453;SDS011;49404;50.472;6.954;2024-03-23T18:12:08;6.80;;;6.40;;
53453;SDS011;49404;50.472;6.954;2024-03-23T18:14:34;7.13;;;6.63;;
53453;SDS011;49404;50.472;6.954;2024-03-23T18:17:00;6.85;;;6.45;;
53453;SDS011;49404;50.472;6.954;2024-03-23T18:19:26;10.93;;;6.55;;
53453;SDS011;49404;50.472;6.954;2024-03-23T18:21:52;7.05;;;6.55;;
53453;SDS011;49404;50.472;6.954;2024-03-23T18:24:18;7.00;;;6.35;;
53453;SDS011;49404;50.472;6.954;2024-03-23T18:26:44;6.70;;;6.30;;
53453;SDS011;49404;50.472;6.954;2024-03-23T18:29:10;7.10;;;6.68;;
53453;SDS011;49404;50.472;6.954;2024-03-23T18:31:38;6.88;;;6.43;;
53453;SDS011;49404;50.472;6.954;2024-03-23T18:34:04;6.78;;;6.38;;
53453;SDS011;49404;50.472;6.954;2024-03-23T18:36:31;7.28;;;6.32;;
53453;SDS011;49404;50.472;6.954;2024-03-23T18:38:57;6.60;;;6.10;;
53453;SDS011;49404;50.472;6.954;2024-03-23T18:41:23;6.20;;;5.80;;
53453;SDS011;49404;50.472;6.954;2024-03-23T18:43:49;6.10;;;5.70;;
53453;SDS011;49404;50.472;6.954;2024-03-23T18:46:15;6.13;;;5.70;;
53453;SDS011;49404;50.472;6.954;2024-03-23T18:48:41;5.55;;;4.90;;
53453;SDS011;49404;50.472;6.954;2024-03-23T18:51:07;3.53;;;3.33;;
53453;SDS011;49404;50.472;6.954;2024-03-23T18:53:33;3.40;;;3.10;;
53453;SDS011;49404;50.472;6.954;2024-03-23T18:55:59;3.58;;;3.38;;
53453;SDS011;49404;50.472;6.954;2024-03-23T18:58:26;3.40;;;3.10;;
53453;SDS011;49404;50.472;6.954;2024-03-23T19:00:59;3.50;;;3.30;;
53453;SDS011;49404;50.472;6.954;2024-03-23T19:03:25;3.90;;;3.60;;
53453;SDS011;49404;50.472;6.954;2024-03-23T19:06:01;6.38;;;3.40;;
53453;SDS011;49404;50.472;6.954;2024-03-23T19:08:28;3.40;;;3.20;;
53453;SDS011;49404;50.472;6.954;2024-03-23T19:13:20;3.55;;;3.35;;
53453;SDS011;49404;50.472;6.954;2024-03-23T19:15:46;3.75;;;3.55;;
53453;SDS011;49404;50.472;6.954;2024-03-23T19:18:13;3.60;;;3.30;;
53453;SDS011;49404;50.472;6.954;2024-03-23T19:20:39;3.42;;;3.22;;
53453;SDS011;49404;50.472;6.954;2024-03-23T19:23:05;3.60;;;3.40;;
53453;SDS011;49404;50.472;6.954;2024-03-23T19:25:32;3.65;;;3.45;;
53453;SDS011;49404;50.472;6.954;2024-03-23T19:27:58;4.05;;;3.53;;
53453;SDS011;49404;50.472;6.954;2024-03-23T19:30:25;3.60;;;3.40;;
53453;SDS011;49404;50.472;6.954;2024-03-23T19:32:51;3.65;;;3.35;;
53453;SDS011;49404;50.472;6.954;2024-03-23T19:35:19;3.50;;;3.30;;
53453;SDS011;49404;50.472;6.954;2024-03-23T19:37:45;3.60;;;3.40;;
53453;SDS011;49404;50.472;6.954;2024-03-23T19:40:11;3.65;;;3.45;;
53453;SDS011;49404;50.472;6.954;2024-03-23T19:42:38;3.40;;;3.20;;
53453;SDS011;49404;50.472;6.954;2024-03-23T19:45:04;3.67;;;3.47;;
53453;SDS011;49404;50.472;6.954;2024-03-23T19:47:30;3.60;;;3.40;;
53453;SDS011;49404;50.472;6.954;2024-03-23T19:49:56;3.70;;;3.50;;
53453;SDS011;49404;50.472;6.954;2024-03-23T19:52:22;3.60;;;3.40;;
53453;SDS011;49404;50.472;6.954;2024-03-23T19:54:48;3.50;;;3.30;;
53453;SDS011;49404;50.472;6.954;2024-03-23T19:57:14;3.58;;;3.38;;
53453;SDS011;49404;50.472;6.954;2024-03-23T19:59:40;3.50;;;3.30;;
53453;SDS011;49404;50.472;6.954;2024-03-23T20:02:07;3.60;;;3.40;;
53453;SDS011;49404;50.472;6.954;2024-03-23T20:04:33;3.55;;;3.35;;
53453;SDS011;49404;50.472;6.954;2024-03-23T20:06:59;3.90;;;3.70;;
53453;SDS011;49404;50.472;6.954;2024-03-23T20:09:25;3.70;;;3.50;;
53453;SDS011;49404;50.472;6.954;2024-03-23T20:11:54;3.80;;;3.60;;
53453;SDS011;49404;50.472;6.954;2024-03-23T20:14:20;3.70;;;3.50;;
53453;SDS011;49404;50.472;6.954;2024-03-23T20:16:46;3.80;;;3.60;;
53453;SDS011;49404;50.472;6.954;2024-03-23T20:19:12;3.50;;;3.30;;
53453;SDS011;49404;50.472;6.954;2024-03-23T20:21:38;3.60;;;3.40;;
53453;SDS011;49404;50.472;6.954;2024-03-23T20:24:04;3.70;;;3.50;;
53453;SDS011;49404;50.472;6.954;2024-03-23T20:26:31;3.70;;;3.50;;
53453;SDS011;49404;50.472;6.954;2024-03-23T20:28:57;3.75;;;3.47;;
53453;SDS011;49404;50.472;6.954;2024-03-23T20:31:23;3.67;;;3.47;;
53453;SDS011;49404;50.472;6.954;2024-03-23T20:33:49;3.50;;;3.30;;
53453;SDS011;49404;50.472;6.954;2024-03-23T20:36:15;3.80;;;3.60;;
53453;SDS011;49404;50.472;6.954;2024-03-23T20:38:41;3.50;;;3.30;;
53453;SDS011;49404;50.472;6.954;2024-03-23T20:41:07;3.88;;;3.65;;
53453;SDS011;49404;50.472;6.954;2024-03-23T20:43:33;3.50;;;3.30;;
53453;SDS011;49404;50.472;6.954;2024-03-23T20:46:00;3.60;;;3.40;;
53453;SDS011;49404;50.472;6.954;2024-03-23T20:48:27;3.80;;;3.60;;
53453;SDS011;49404;50.472;6.954;2024-03-23T20:50:57;3.80;;;3.50;;
53453;SDS011;49404;50.472;6.954;2024-03-23T20:53:23;3.70;;;3.50;;
53453;SDS011;49404;50.472;6.954;2024-03-23T20:58:21;3.70;;;3.50;;
53453;SDS011;49404;50.472;6.954;2024-03-23T21:00:48;3.75;;;3.45;;
53453;SDS011;49404;50.472;6.954;2024-03-23T21:03:14;3.50;;;3.30;;
53453;SDS011;49404;50.472;6.954;2024-03-23T21:05:40;3.60;;;3.40;;
53453;SDS011;49404;50.472;6.954;2024-03-23T21:08:07;3.78;;;3.50;;
53453;SDS011;49404;50.472;6.954;2024-03-23T21:10:33;3.83;;;3.45;;
53453;SDS011;49404;50.472;6.954;2024-03-23T21:12:59;3.53;;;3.33;;
53453;SDS011;49404;50.472;6.954;2024-03-23T21:15:25;3.20;;;3.00;;
53453;SDS011;49404;50.472;6.954;2024-03-23T21:17:51;2.90;;;2.75;;
53453;SDS011;49404;50.472;6.954;2024-03-23T21:20:17;3.70;;;3.50;;
53453;SDS011;49404;50.472;6.954;2024-03-23T21:22:43;3.53;;;3.33;;
53453;SDS011;49404;50.472;6.954;2024-03-23T21:25:10;3.88;;;3.67;;
53453;SDS011;49404;50.472;6.954;2024-03-23T21:27:37;3.58;;;3.38;;
53453;SDS011;49404;50.472;6.954;2024-03-23T21:30:03;3.08;;;2.88;;
53453;SDS011;49404;50.472;6.954;2024-03-23T21:32:30;2.80;;;2.70;;
53453;SDS011;49404;50.472;6.954;2024-03-23T21:34:56;2.90;;;2.80;;
